sensor_id;sensor_type;location;lat;lon;timestamp;pressure;altitude;pressure_sealevel;temperature;humidity
78144;BME280;67394;52.522;13.622;2024-01-25T00:00:10;100907.78;;;7.91;85.72
78144;BME280;67394;52.522;13.622;2024-01-25T00:02:36;100924.59;;;7.78;87.10
78144;BME280;67394;52.522;13.622;2024-01-25T00:05:03;100921.38;;;7.90;86.56
78144;BME280;67394;52.522;13.622;2024-01-25T00:07:30;100917.91;;;7.86;86.79
78144;BME280;67394;52.522;13.622;2024-01-25T00:09:57;100934.06;;;7.84;86.85
78144;BME280;67394;52.522;13.622;2024-01-25T00:12:23;100926.44;;;7.88;87.04
78144;BME280;67394;52.522;13.622;2024-01-25T00:14:50;100924.72;;;7.87;86.85
78144;BME280;67394;52.522;13.622;2024-01-25T00:17:16;100927.22;;;7.83;88.54
78144;BME280;67394;52.522;13.622;2024-01-25T00:19:43;100919.56;;;7.84;87.99
78144;BME280;67394;52.522;13.622;2024-01-25T00:22:10;100944.28;;;7.87;88.30
78144;BME280;67394;52.522;13.622;2024-01-25T00:24:36;100930.63;;;7.82;88.82
78144;BME280;67394;52.522;13.622;2024-01-25T00:27:03;100937.41;;;7.81;89.40
78144;BME280;67394;52.522;13.622;2024-01-25T00:29:30;100937.34;;;7.78;89.74
78144;BME280;67394;52.522;13.622;2024-01-25T00:31:57;100943.38;;;7.82;89.38
78144;BME280;67394;52.522;13.622;2024-01-25T00:34:24;100934.78;;;7.77;89.97
78144;BME280;67394;52.522;13.622;2024-01-25T00:36:51;100953.56;;;7.80;89.72
78144;BME280;67394;52.522;13.622;2024-01-25T00:39:18;100951.69;;;7.70;90.76
78144;BME280;67394;52.522;13.622;2024-01-25T00:41:46;100937.28;;;7.75;89.92
78144;BME280;67394;52.522;13.622;2024-01-25T00:44:17;100924.44;;;7.67;91.43
78144;BME280;67394;52.522;13.622;2024-01-25T00:46:45;100915.91;;;7.67;91.09
78144;BME280;67394;52.522;13.622;2024-01-25T00:49:12;100922.75;;;7.68;91.31
78144;BME280;67394;52.522;13.622;2024-01-25T00:51:41;100926.91;;;7.64;91.30
78144;BME280;67394;52.522;13.622;2024-01-25T00:54:14;100921.84;;;7.66;91.36
78144;BME280;67394;52.522;13.622;2024-01-25T00:56:41;100923.63;;;7.70;90.56
78144;BME280;67394;52.522;13.622;2024-01-25T00:59:08;100930.44;;;7.71;90.37
78144;BME280;67394;52.522;13.622;2024-01-25T01:01:35;100928.66;;;7.67;90.48
78144;BME280;67394;52.522;13.622;2024-01-25T01:04:02;100936.28;;;7.65;90.67
78144;BME280;67394;52.522;13.622;2024-01-25T01:06:29;100938.03;;;7.68;90.50
78144;BME280;67394;52.522;13.622;2024-01-25T01:08:56;100938.94;;;7.70;89.99
78144;BME280;67394;52.522;13.622;2024-01-25T01:11:23;100938.91;;;7.68;90.05
78144;BME280;67394;52.522;13.622;2024-01-25T01:13:49;100933.81;;;7.68;90.30
78144;BME280;67394;52.522;13.622;2024-01-25T01:16:16;100939.72;;;7.67;90.03
78144;BME280;67394;52.522;13.622;2024-01-25T01:18:43;100919.19;;;7.58;92.41
78144;BME280;67394;52.522;13.622;2024-01-25T01:21:10;100926.06;;;7.62;90.98
78144;BME280;67394;52.522;13.622;2024-01-25T01:23:36;100940.47;;;7.60;91.46
78144;BME280;67394;52.522;13.622;2024-01-25T01:26:04;100934.44;;;7.55;91.99
78144;BME280;67394;52.522;13.622;2024-01-25T01:28:31;100945.44;;;7.53;93.26
78144;BME280;67394;52.522;13.622;2024-01-25T01:30:58;100947.28;;;7.60;91.78
78144;BME280;67394;52.522;13.622;2024-01-25T01:33:24;100958.38;;;7.63;90.43
78144;BME280;67394;52.522;13.622;2024-01-25T01:35:51;100951.50;;;7.58;91.82
78144;BME280;67394;52.522;13.622;2024-01-25T01:38:17;100948.09;;;7.59;91.49
78144;BME280;67394;52.522;13.622;2024-01-25T01:40:44;100959.94;;;7.55;92.32
78144;BME280;67394;52.522;13.622;2024-01-25T01:43:20;100971.03;;;7.57;92.67
78144;BME280;67394;52.522;13.622;2024-01-25T01:45:47;100953.94;;;7.52;93.47
78144;BME280;67394;52.522;13.622;2024-01-25T01:48:16;100976.13;;;7.57;91.93
78144;BME280;67394;52.522;13.622;2024-01-25T01:50:44;100971.00;;;7.56;91.62
78144;BME280;67394;52.522;13.622;2024-01-25T01:53:11;100973.69;;;7.62;91.56
78144;BME280;67394;52.522;13.622;2024-01-25T01:55:39;100981.22;;;7.57;91.55
78144;BME280;67394;52.522;13.622;2024-01-25T01:58:06;100979.50;;;7.56;92.15
78144;BME280;67394;52.522;13.622;2024-01-25T02:00:34;100988.97;;;7.62;91.31
78144;BME280;67394;52.522;13.622;2024-01-25T02:03:01;100980.38;;;7.57;92.47
78144;BME280;67394;52.522;13.622;2024-01-25T02:05:28;100988.84;;;7.56;92.12
78144;BME280;67394;52.522;13.622;2024-01-25T02:07:55;100986.28;;;7.54;92.06
78144;BME280;67394;52.522;13.622;2024-01-25T02:10:22;100995.63;;;7.54;92.38
78144;BME280;67394;52.522;13.622;2024-01-25T02:12:51;100982.84;;;7.52;92.45
78144;BME280;67394;52.522;13.622;2024-01-25T02:15:17;101002.44;;;7.55;92.32
78144;BME280;67394;52.522;13.622;2024-01-25T02:17:44;101005.84;;;7.55;91.59
78144;BME280;67394;52.522;13.622;2024-01-25T02:20:11;100990.59;;;7.57;92.00
78144;BME280;67394;52.522;13.622;2024-01-25T02:22:38;100993.88;;;7.50;92.35
78144;BME280;67394;52.522;13.622;2024-01-25T02:25:05;101001.47;;;7.48;92.72
78144;BME280;67394;52.522;13.622;2024-01-25T02:27:31;101003.16;;;7.46;92.52
78144;BME280;67394;52.522;13.622;2024-01-25T02:29:58;100991.19;;;7.44;93.01
78144;BME280;67394;52.522;13.622;2024-01-25T02:32:25;100996.28;;;7.44;93.23
78144;BME280;67394;52.522;13.622;2024-01-25T02:34:51;101009.81;;;7.38;93.12
78144;BME280;67394;52.522;13.622;2024-01-25T02:37:18;100997.94;;;7.40;92.55
78144;BME280;67394;52.522;13.622;2024-01-25T02:39:45;100988.53;;;7.38;93.17
78144;BME280;67394;52.522;13.622;2024-01-25T02:42:12;100986.03;;;7.39;93.20
78144;BME280;67394;52.522;13.622;2024-01-25T02:44:38;100981.69;;;7.35;92.95
78144;BME280;67394;52.522;13.622;2024-01-25T02:47:05;100982.59;;;7.37;92.34
78144;BME280;67394;52.522;13.622;2024-01-25T02:49:32;100987.63;;;7.34;92.61
78144;BME280;67394;52.522;13.622;2024-01-25T02:51:58;100983.31;;;7.31;93.24
78144;BME280;67394;52.522;13.622;2024-01-25T02:54:25;100979.84;;;7.26;92.81
78144;BME280;67394;52.522;13.622;2024-01-25T02:56:52;100968.03;;;7.31;91.98
78144;BME280;67394;52.522;13.622;2024-01-25T02:59:19;100979.09;;;7.30;91.63
78144;BME280;67394;52.522;13.622;2024-01-25T03:01:46;100992.59;;;7.26;93.64
78144;BME280;67394;52.522;13.622;2024-01-25T03:04:13;100972.28;;;7.32;92.87
78144;BME280;67394;52.522;13.622;2024-01-25T03:06:40;100988.44;;;7.33;92.42
78144;BME280;67394;52.522;13.622;2024-01-25T03:09:06;100990.94;;;7.28;92.57
78144;BME280;67394;52.522;13.622;2024-01-25T03:11:33;100996.97;;;7.33;92.28
78144;BME280;67394;52.522;13.622;2024-01-25T03:14:00;100991.03;;;7.34;92.18
78144;BME280;67394;52.522;13.622;2024-01-25T03:16:26;101013.13;;;7.34;91.40
78144;BME280;67394;52.522;13.622;2024-01-25T03:18:53;100995.28;;;7.34;92.07
78144;BME280;67394;52.522;13.622;2024-01-25T03:21:20;101017.41;;;7.37;91.16
78144;BME280;67394;52.522;13.622;2024-01-25T03:23:47;101009.72;;;7.33;91.69
78144;BME280;67394;52.522;13.622;2024-01-25T03:26:13;101018.91;;;7.25;93.00
78144;BME280;67394;52.522;13.622;2024-01-25T03:28:40;101013.19;;;7.37;91.34
78144;BME280;67394;52.522;13.622;2024-01-25T03:31:06;101007.91;;;7.28;91.38
78144;BME280;67394;52.522;13.622;2024-01-25T03:33:33;101018.16;;;7.29;91.31
78144;BME280;67394;52.522;13.622;2024-01-25T03:36:04;101023.25;;;7.31;91.66
78144;BME280;67394;52.522;13.622;2024-01-25T03:38:32;101011.41;;;7.33;91.01
78144;BME280;67394;52.522;13.622;2024-01-25T03:40:58;101027.53;;;7.32;90.92
78144;BME280;67394;52.522;13.622;2024-01-25T03:43:25;101028.41;;;7.34;90.57
78144;BME280;67394;52.522;13.622;2024-01-25T03:45:59;101025.00;;;7.33;90.55
78144;BME280;67394;52.522;13.622;2024-01-25T03:48:25;101032.66;;;7.33;89.73
78144;BME280;67394;52.522;13.622;2024-01-25T03:50:52;101032.63;;;7.30;90.56
78144;BME280;67394;52.522;13.622;2024-01-25T03:53:19;101041.00;;;7.25;91.31
78144;BME280;67394;52.522;13.622;2024-01-25T03:55:46;101047.84;;;7.27;91.41
78144;BME280;67394;52.522;13.622;2024-01-25T03:58:12;101043.59;;;7.26;90.46
78144;BME280;67394;52.522;13.622;2024-01-25T04:00:39;101047.03;;;7.28;89.69
78144;BME280;67394;52.522;13.622;2024-01-25T04:03:05;101057.19;;;7.27;90.13
78144;BME280;67394;52.522;13.622;2024-01-25T04:05:33;101065.56;;;7.21;90.92
78144;BME280;67394;52.522;13.622;2024-01-25T04:08:00;101049.41;;;7.19;89.86
78144;BME280;67394;52.522;13.622;2024-01-25T04:10:26;101049.38;;;7.18;91.44
78144;BME280;67394;52.522;13.622;2024-01-25T04:12:53;101051.94;;;7.21;90.87
78144;BME280;67394;52.522;13.622;2024-01-25T04:15:21;101048.56;;;7.22;90.86
78144;BME280;67394;52.522;13.622;2024-01-25T04:17:48;101044.31;;;7.21;91.51
78144;BME280;67394;52.522;13.622;2024-01-25T04:20:15;101068.09;;;7.20;90.57
78144;BME280;67394;52.522;13.622;2024-01-25T04:22:42;101066.41;;;7.20;89.90
78144;BME280;67394;52.522;13.622;2024-01-25T04:25:09;101079.16;;;7.20;90.25
78144;BME280;67394;52.522;13.622;2024-01-25T04:27:37;101072.31;;;7.18;90.70
78144;BME280;67394;52.522;13.622;2024-01-25T04:30:05;101079.22;;;7.23;90.04
78144;BME280;67394;52.522;13.622;2024-01-25T04:32:32;101088.47;;;7.18;89.72
78144;BME280;67394;52.522;13.622;2024-01-25T04:34:59;101080.00;;;7.21;89.25
78144;BME280;67394;52.522;13.622;2024-01-25T04:37:26;101085.91;;;7.18;89.90
78144;BME280;67394;52.522;13.622;2024-01-25T04:39:52;101082.47;;;7.16;89.10
78144;BME280;67394;52.522;13.622;2024-01-25T04:42:19;101069.84;;;7.22;88.89
78144;BME280;67394;52.522;13.622;2024-01-25T04:44:46;101079.16;;;7.20;89.56
78144;BME280;67394;52.522;13.622;2024-01-25T04:47:13;101084.94;;;7.13;90.40
78144;BME280;67394;52.522;13.622;2024-01-25T04:49:40;101090.13;;;7.16;90.37
78144;BME280;67394;52.522;13.622;2024-01-25T04:52:07;101114.72;;;7.14;90.51
78144;BME280;67394;52.522;13.622;2024-01-25T04:54:34;101104.56;;;7.16;90.63
78144;BME280;67394;52.522;13.622;2024-01-25T04:57:00;101113.09;;;7.18;90.37
78144;BME280;67394;52.522;13.622;2024-01-25T04:59:27;101105.34;;;7.13;91.11
78144;BME280;67394;52.522;13.622;2024-01-25T05:01:56;101093.31;;;7.06;91.60
78144;BME280;67394;52.522;13.622;2024-01-25T05:04:23;101095.09;;;7.12;91.19
78144;BME280;67394;52.522;13.622;2024-01-25T05:06:50;101102.75;;;7.12;91.56
78144;BME280;67394;52.522;13.622;2024-01-25T05:09:16;101110.31;;;7.07;91.37
78144;BME280;67394;52.522;13.622;2024-01-25T05:11:43;101118.00;;;7.10;90.92
78144;BME280;67394;52.522;13.622;2024-01-25T05:14:10;101121.41;;;7.11;90.41
78144;BME280;67394;52.522;13.622;2024-01-25T05:16:37;101100.13;;;7.07;90.02
78144;BME280;67394;52.522;13.622;2024-01-25T05:19:06;101130.75;;;7.10;90.00
78144;BME280;67394;52.522;13.622;2024-01-25T05:21:33;101126.50;;;7.09;89.86
78144;BME280;67394;52.522;13.622;2024-01-25T05:23:59;101150.31;;;7.11;90.66
78144;BME280;67394;52.522;13.622;2024-01-25T05:26:26;101147.84;;;7.14;91.07
78144;BME280;67394;52.522;13.622;2024-01-25T05:28:52;101145.19;;;7.08;91.65
78144;BME280;67394;52.522;13.622;2024-01-25T05:31:19;101151.03;;;7.04;92.11
78144;BME280;67394;52.522;13.622;2024-01-25T05:33:47;101152.59;;;6.97;93.48
78144;BME280;67394;52.522;13.622;2024-01-25T05:36:14;101150.19;;;7.05;91.43
78144;BME280;67394;52.522;13.622;2024-01-25T05:38:41;101150.13;;;7.02;91.53
78144;BME280;67394;52.522;13.622;2024-01-25T05:41:08;101161.22;;;7.04;91.32
78144;BME280;67394;52.522;13.622;2024-01-25T05:43:35;101161.31;;;7.07;91.17
78144;BME280;67394;52.522;13.622;2024-01-25T05:46:01;101167.97;;;7.02;91.35
78144;BME280;67394;52.522;13.622;2024-01-25T05:48:30;101160.44;;;7.07;90.18
78144;BME280;67394;52.522;13.622;2024-01-25T05:50:57;101183.34;;;7.05;90.56
78144;BME280;67394;52.522;13.622;2024-01-25T05:53:24;101185.91;;;7.07;90.34
78144;BME280;67394;52.522;13.622;2024-01-25T05:55:53;101198.63;;;7.05;90.92
78144;BME280;67394;52.522;13.622;2024-01-25T05:58:20;101194.34;;;7.04;90.96
78144;BME280;67394;52.522;13.622;2024-01-25T06:00:49;101189.19;;;7.01;90.50
78144;BME280;67394;52.522;13.622;2024-01-25T06:03:16;101193.53;;;7.05;90.28
78144;BME280;67394;52.522;13.622;2024-01-25T06:05:43;101199.53;;;7.07;89.61
78144;BME280;67394;52.522;13.622;2024-01-25T06:08:10;101194.41;;;7.06;89.79
78144;BME280;67394;52.522;13.622;2024-01-25T06:10:36;101195.19;;;7.03;89.47
78144;BME280;67394;52.522;13.622;2024-01-25T06:13:03;101215.66;;;7.06;89.24
78144;BME280;67394;52.522;13.622;2024-01-25T06:15:30;101214.88;;;7.09;89.19
78144;BME280;67394;52.522;13.622;2024-01-25T06:17:57;101215.50;;;7.00;89.92
78144;BME280;67394;52.522;13.622;2024-01-25T06:20:23;101241.19;;;7.08;88.82
78144;BME280;67394;52.522;13.622;2024-01-25T06:22:50;101234.44;;;7.11;88.50
78144;BME280;67394;52.522;13.622;2024-01-25T06:25:17;101234.22;;;7.02;90.03
78144;BME280;67394;52.522;13.622;2024-01-25T06:27:43;101224.00;;;7.01;90.54
78144;BME280;67394;52.522;13.622;2024-01-25T06:30:11;101232.50;;;7.01;90.14
78144;BME280;67394;52.522;13.622;2024-01-25T06:32:37;101246.16;;;7.03;89.57
78144;BME280;67394;52.522;13.622;2024-01-25T06:35:05;101230.94;;;7.06;88.44
78144;BME280;67394;52.522;13.622;2024-01-25T06:37:31;101234.31;;;7.05;88.65
78144;BME280;67394;52.522;13.622;2024-01-25T06:39:58;101232.59;;;7.04;88.96
78144;BME280;67394;52.522;13.622;2024-01-25T06:42:25;101240.28;;;7.06;88.63
78144;BME280;67394;52.522;13.622;2024-01-25T06:44:52;101250.56;;;7.10;87.40
78144;BME280;67394;52.522;13.622;2024-01-25T06:47:19;101259.78;;;7.05;89.14
78144;BME280;67394;52.522;13.622;2024-01-25T06:49:48;101267.72;;;7.17;87.19
78144;BME280;67394;52.522;13.622;2024-01-25T06:52:15;101278.69;;;7.13;87.76
78144;BME280;67394;52.522;13.622;2024-01-25T06:54:42;101256.47;;;7.08;88.76
78144;BME280;67394;52.522;13.622;2024-01-25T06:57:09;101268.47;;;7.13;87.55
78144;BME280;67394;52.522;13.622;2024-01-25T06:59:36;101276.91;;;7.09;87.46
78144;BME280;67394;52.522;13.622;2024-01-25T07:02:02;101269.16;;;7.06;88.01
78144;BME280;67394;52.522;13.622;2024-01-25T07:04:30;101294.47;;;6.98;89.36
78144;BME280;67394;52.522;13.622;2024-01-25T07:06:56;101286.16;;;7.06;86.82
78144;BME280;67394;52.522;13.622;2024-01-25T07:09:23;101310.69;;;7.02;88.03
78144;BME280;67394;52.522;13.622;2024-01-25T07:11:50;101294.63;;;7.05;88.22
78144;BME280;67394;52.522;13.622;2024-01-25T07:14:17;101310.69;;;7.02;88.15
78144;BME280;67394;52.522;13.622;2024-01-25T07:16:44;101303.13;;;7.05;88.20
78144;BME280;67394;52.522;13.622;2024-01-25T07:19:10;101329.41;;;7.03;89.19
78144;BME280;67394;52.522;13.622;2024-01-25T07:21:37;101325.97;;;7.02;88.75
78144;BME280;67394;52.522;13.622;2024-01-25T07:24:04;101331.84;;;6.99;89.86
78144;BME280;67394;52.522;13.622;2024-01-25T07:26:31;101330.16;;;7.00;89.31
78144;BME280;67394;52.522;13.622;2024-01-25T07:28:58;101316.69;;;7.04;88.46
78144;BME280;67394;52.522;13.622;2024-01-25T07:31:27;101322.63;;;7.03;89.34
78144;BME280;67394;52.522;13.622;2024-01-25T07:33:54;101335.47;;;7.08;88.38
78144;BME280;67394;52.522;13.622;2024-01-25T07:36:22;101329.34;;;7.01;88.79
78144;BME280;67394;52.522;13.622;2024-01-25T07:38:51;101345.63;;;7.06;88.99
78144;BME280;67394;52.522;13.622;2024-01-25T07:41:17;101340.50;;;7.05;87.82
78144;BME280;67394;52.522;13.622;2024-01-25T07:43:44;101342.19;;;7.04;88.82
78144;BME280;67394;52.522;13.622;2024-01-25T07:46:13;101343.91;;;7.05;88.61
78144;BME280;67394;52.522;13.622;2024-01-25T07:48:40;101337.94;;;7.05;88.83
78144;BME280;67394;52.522;13.622;2024-01-25T07:51:14;101342.97;;;7.02;89.71
78144;BME280;67394;52.522;13.622;2024-01-25T07:53:41;101344.66;;;7.01;90.33
78144;BME280;67394;52.522;13.622;2024-01-25T07:56:08;101356.53;;;7.01;91.05
78144;BME280;67394;52.522;13.622;2024-01-25T07:58:35;101342.22;;;7.06;90.84
78144;BME280;67394;52.522;13.622;2024-01-25T08:01:05;101361.66;;;7.02;91.37
78144;BME280;67394;52.522;13.622;2024-01-25T08:03:32;101360.75;;;6.98;90.77
78144;BME280;67394;52.522;13.622;2024-01-25T08:06:00;101369.31;;;7.02;91.70
78144;BME280;67394;52.522;13.622;2024-01-25T08:08:29;101371.94;;;7.05;92.05
78144;BME280;67394;52.522;13.622;2024-01-25T08:10:56;101366.69;;;6.99;91.19
78144;BME280;67394;52.522;13.622;2024-01-25T08:13:22;101366.84;;;7.05;91.53
78144;BME280;67394;52.522;13.622;2024-01-25T08:15:50;101370.31;;;7.07;90.43
78144;BME280;67394;52.522;13.622;2024-01-25T08:18:17;101382.97;;;7.04;90.98
78144;BME280;67394;52.522;13.622;2024-01-25T08:20:47;101388.78;;;6.98;90.98
78144;BME280;67394;52.522;13.622;2024-01-25T08:23:15;101404.13;;;7.02;89.61
78144;BME280;67394;52.522;13.622;2024-01-25T08:25:42;101408.59;;;7.09;89.66
78144;BME280;67394;52.522;13.622;2024-01-25T08:28:09;101428.03;;;7.05;90.01
78144;BME280;67394;52.522;13.622;2024-01-25T08:30:36;101423.06;;;7.11;89.81
78144;BME280;67394;52.522;13.622;2024-01-25T08:33:06;101428.84;;;7.04;90.24
78144;BME280;67394;52.522;13.622;2024-01-25T08:35:33;101415.31;;;7.07;89.82
78144;BME280;67394;52.522;13.622;2024-01-25T08:38:00;101426.28;;;7.04;89.97
78144;BME280;67394;52.522;13.622;2024-01-25T08:40:27;101409.22;;;7.02;89.66
78144;BME280;67394;52.522;13.622;2024-01-25T08:42:56;101406.00;;;7.07;89.19
78144;BME280;67394;52.522;13.622;2024-01-25T08:45:22;101414.44;;;7.06;89.51
78144;BME280;67394;52.522;13.622;2024-01-25T08:47:49;101414.44;;;7.06;89.56
78144;BME280;67394;52.522;13.622;2024-01-25T08:50:16;101421.25;;;7.06;90.15
78144;BME280;67394;52.522;13.622;2024-01-25T08:52:43;101423.78;;;7.06;90.22
78144;BME280;67394;52.522;13.622;2024-01-25T08:55:10;101431.53;;;7.10;90.10
78144;BME280;67394;52.522;13.622;2024-01-25T08:57:37;101445.00;;;7.05;90.54
78144;BME280;67394;52.522;13.622;2024-01-25T09:00:04;101443.44;;;7.10;89.72
78144;BME280;67394;52.522;13.622;2024-01-25T09:02:31;101432.41;;;7.11;89.86
78144;BME280;67394;52.522;13.622;2024-01-25T09:04:57;101435.00;;;7.12;89.45
78144;BME280;67394;52.522;13.622;2024-01-25T09:07:24;101435.00;;;7.12;88.94
78144;BME280;67394;52.522;13.622;2024-01-25T09:09:51;101439.19;;;7.10;89.52
78144;BME280;67394;52.522;13.622;2024-01-25T09:12:17;101435.09;;;7.15;89.02
78144;BME280;67394;52.522;13.622;2024-01-25T09:14:44;101446.28;;;7.20;89.23
78144;BME280;67394;52.522;13.622;2024-01-25T09:17:12;101453.94;;;7.20;89.38
78144;BME280;67394;52.522;13.622;2024-01-25T09:19:39;101452.19;;;7.19;89.22
78144;BME280;67394;52.522;13.622;2024-01-25T09:22:07;101465.91;;;7.24;89.01
78144;BME280;67394;52.522;13.622;2024-01-25T09:24:36;101464.28;;;7.26;89.08
78144;BME280;67394;52.522;13.622;2024-01-25T09:27:03;101476.16;;;7.26;89.04
78144;BME280;67394;52.522;13.622;2024-01-25T09:29:29;101471.00;;;7.24;88.14
78144;BME280;67394;52.522;13.622;2024-01-25T09:31:56;101477.84;;;7.25;88.08
78144;BME280;67394;52.522;13.622;2024-01-25T09:34:23;101486.25;;;7.23;88.16
78144;BME280;67394;52.522;13.622;2024-01-25T09:36:50;101480.25;;;7.19;89.47
78144;BME280;67394;52.522;13.622;2024-01-25T09:39:18;101492.19;;;7.22;88.96
78144;BME280;67394;52.522;13.622;2024-01-25T09:41:46;101498.38;;;7.30;87.86
78144;BME280;67394;52.522;13.622;2024-01-25T09:44:13;101494.78;;;7.23;88.35
78144;BME280;67394;52.522;13.622;2024-01-25T09:46:41;101491.31;;;7.21;88.58
78144;BME280;67394;52.522;13.622;2024-01-25T09:49:07;101488.09;;;7.27;88.33
78144;BME280;67394;52.522;13.622;2024-01-25T09:51:39;101498.38;;;7.31;88.37
78144;BME280;67394;52.522;13.622;2024-01-25T09:54:06;101508.69;;;7.34;87.96
78144;BME280;67394;52.522;13.622;2024-01-25T09:56:33;101501.03;;;7.34;89.31
78144;BME280;67394;52.522;13.622;2024-01-25T09:59:00;101505.16;;;7.29;88.15
78144;BME280;67394;52.522;13.622;2024-01-25T10:01:27;101505.22;;;7.32;88.06
78144;BME280;67394;52.522;13.622;2024-01-25T10:03:54;101510.31;;;7.32;87.81
78144;BME280;67394;52.522;13.622;2024-01-25T10:06:21;101514.63;;;7.35;87.60
78144;BME280;67394;52.522;13.622;2024-01-25T10:08:49;101505.22;;;7.32;87.84
78144;BME280;67394;52.522;13.622;2024-01-25T10:11:16;101508.69;;;7.34;88.40
78144;BME280;67394;52.522;13.622;2024-01-25T10:13:47;101514.50;;;7.29;88.46
78144;BME280;67394;52.522;13.622;2024-01-25T10:16:16;101517.91;;;7.29;88.56
78144;BME280;67394;52.522;13.622;2024-01-25T10:18:46;101520.47;;;7.31;89.09
78144;BME280;67394;52.522;13.622;2024-01-25T10:21:16;101528.09;;;7.29;89.09
78144;BME280;67394;52.522;13.622;2024-01-25T10:23:44;101530.81;;;7.35;89.02
78144;BME280;67394;52.522;13.622;2024-01-25T10:26:12;101528.25;;;7.35;88.80
78144;BME280;67394;52.522;13.622;2024-01-25T10:28:38;101545.38;;;7.40;87.57
78144;BME280;67394;52.522;13.622;2024-01-25T10:31:05;101551.31;;;7.39;87.28
78144;BME280;67394;52.522;13.622;2024-01-25T10:33:33;101553.72;;;7.34;86.61
78144;BME280;67394;52.522;13.622;2024-01-25T10:36:02;101561.41;;;7.35;86.32
78144;BME280;67394;52.522;13.622;2024-01-25T10:38:34;101553.03;;;7.40;86.92
78144;BME280;67394;52.522;13.622;2024-01-25T10:41:04;101554.81;;;7.44;86.59
78144;BME280;67394;52.522;13.622;2024-01-25T10:43:32;101547.34;;;7.50;85.91
78144;BME280;67394;52.522;13.622;2024-01-25T10:46:00;101549.97;;;7.53;85.74
78144;BME280;67394;52.522;13.622;2024-01-25T10:48:30;101567.91;;;7.56;86.13
78144;BME280;67394;52.522;13.622;2024-01-25T10:50:57;101561.84;;;7.52;84.91
78144;BME280;67394;52.522;13.622;2024-01-25T10:53:26;101544.81;;;7.50;85.11
78144;BME280;67394;52.522;13.622;2024-01-25T10:55:56;101553.28;;;7.49;85.12
78144;BME280;67394;52.522;13.622;2024-01-25T10:58:22;101557.59;;;7.51;85.98
78144;BME280;67394;52.522;13.622;2024-01-25T11:00:54;101560.19;;;7.54;84.54
78144;BME280;67394;52.522;13.622;2024-01-25T11:03:28;101550.75;;;7.50;83.56
78144;BME280;67394;52.522;13.622;2024-01-25T11:06:09;101561.84;;;7.52;84.96
78144;BME280;67394;52.522;13.622;2024-01-25T11:08:38;101556.88;;;7.57;85.10
78144;BME280;67394;52.522;13.622;2024-01-25T11:11:13;101566.25;;;7.58;85.74
78144;BME280;67394;52.522;13.622;2024-01-25T11:13:44;101579.69;;;7.51;84.21
78144;BME280;67394;52.522;13.622;2024-01-25T11:16:15;101581.38;;;7.50;84.71
78144;BME280;67394;52.522;13.622;2024-01-25T11:18:54;101567.81;;;7.53;84.37
78144;BME280;67394;52.522;13.622;2024-01-25T11:21:41;101572.91;;;7.51;84.63
78144;BME280;67394;52.522;13.622;2024-01-25T11:24:24;101568.66;;;7.52;85.58
78144;BME280;67394;52.522;13.622;2024-01-25T11:26:51;101571.50;;;7.62;85.29
78144;BME280;67394;52.522;13.622;2024-01-25T11:29:19;101572.47;;;7.67;84.65
78144;BME280;67394;52.522;13.622;2024-01-25T11:31:47;101579.31;;;7.68;83.88
78144;BME280;67394;52.522;13.622;2024-01-25T11:34:14;101577.91;;;7.80;84.02
78144;BME280;67394;52.522;13.622;2024-01-25T11:36:42;101577.13;;;7.82;83.01
78144;BME280;67394;52.522;13.622;2024-01-25T11:39:09;101588.94;;;7.79;83.50
78144;BME280;67394;52.522;13.622;2024-01-25T11:41:37;101579.59;;;7.79;83.46
78144;BME280;67394;52.522;13.622;2024-01-25T11:44:04;101579.72;;;7.85;83.43
78144;BME280;67394;52.522;13.622;2024-01-25T11:46:31;101578.00;;;7.84;81.81
78144;BME280;67394;52.522;13.622;2024-01-25T11:49:02;101577.97;;;7.83;82.50
78144;BME280;67394;52.522;13.622;2024-01-25T11:51:29;101577.94;;;7.81;82.53
78144;BME280;67394;52.522;13.622;2024-01-25T11:53:57;101566.09;;;7.85;83.04
78144;BME280;67394;52.522;13.622;2024-01-25T11:56:27;101572.88;;;7.84;83.01
78144;BME280;67394;52.522;13.622;2024-01-25T11:58:55;101571.16;;;7.82;82.53
78144;BME280;67394;52.522;13.622;2024-01-25T12:01:22;101574.47;;;7.79;82.23
78144;BME280;67394;52.522;13.622;2024-01-25T12:03:51;101568.28;;;7.69;82.88
78144;BME280;67394;52.522;13.622;2024-01-25T12:06:18;101575.34;;;7.80;82.72
78144;BME280;67394;52.522;13.622;2024-01-25T12:08:45;101574.34;;;7.75;82.26
78144;BME280;67394;52.522;13.622;2024-01-25T12:11:12;101579.44;;;7.75;82.26
78144;BME280;67394;52.522;13.622;2024-01-25T12:13:40;101582.19;;;7.81;81.19
78144;BME280;67394;52.522;13.622;2024-01-25T12:16:11;101576.28;;;7.83;81.77
78144;BME280;67394;52.522;13.622;2024-01-25T12:18:41;101589.06;;;7.85;82.31
78144;BME280;67394;52.522;13.622;2024-01-25T12:21:09;101568.09;;;7.96;80.18
78144;BME280;67394;52.522;13.622;2024-01-25T12:23:40;101576.09;;;8.10;80.25
78144;BME280;67394;52.522;13.622;2024-01-25T12:26:08;101570.03;;;8.06;79.03
78144;BME280;67394;52.522;13.622;2024-01-25T12:28:40;101574.69;;;8.21;79.27
78144;BME280;67394;52.522;13.622;2024-01-25T12:31:07;101575.47;;;8.19;79.03
78144;BME280;67394;52.522;13.622;2024-01-25T12:33:34;101575.31;;;8.13;79.50
78144;BME280;67394;52.522;13.622;2024-01-25T12:36:02;101572.72;;;8.11;79.70
78144;BME280;67394;52.522;13.622;2024-01-25T12:38:30;101580.50;;;8.16;79.54
78144;BME280;67394;52.522;13.622;2024-01-25T12:40:57;101573.63;;;8.13;79.16
78144;BME280;67394;52.522;13.622;2024-01-25T12:43:24;101561.16;;;8.25;79.17
78144;BME280;67394;52.522;13.622;2024-01-25T12:45:52;101558.34;;;8.15;77.87
78144;BME280;67394;52.522;13.622;2024-01-25T12:48:23;101566.28;;;8.25;78.34
78144;BME280;67394;52.522;13.622;2024-01-25T12:50:50;101568.41;;;8.08;78.65